Time;durP1;ratioP1;P1;durP2;ratioP2;P2;SDS_P1;SDS_P2;PMS_P1;PMS_P2;Temp;Humidity;BMP_temperature;BMP_pressure;BME280_temperature;BME280_humidity;BME280_pressure;Samples;Min_cycle;Max_cycle;Signal;HPM_P1;HPM_P2
2022/04/02 00:00:23;;;;;;;;;;;21.30;45.40;;;;;;5095624;28;19963;-41
2022/04/02 00:02:50;;;;;;;;;;;21.40;45.40;;;;;;5095748;28;20020;-41
2022/04/02 00:05:17;;;;;;;;;;;21.40;45.40;;;;;;5095186;28;19924;-42
2022/04/02 00:07:44;;;;;;;;;;;21.40;45.40;;;;;;5094115;28;19928;-43
2022/04/02 00:10:11;;;;;;;;;;;21.40;45.40;;;;;;5095961;28;19924;-41
2022/04/02 00:12:38;;;;;;;;;;;21.30;45.30;;;;;;5094408;28;19928;-42
2022/04/02 00:15:05;;;;;;;;;;;21.30;45.30;;;;;;5095002;28;19924;-43
2022/04/02 00:17:33;;;;;;;;;;;21.30;45.40;;;;;;5095251;28;20357;-44
2022/04/02 00:20:00;;;;;;;;;;;21.30;45.50;;;;;;5073851;28;20478;-41
2022/04/02 00:22:27;;;;;;;;;;;21.30;45.60;;;;;;5074577;28;19924;-44
2022/04/02 00:24:54;;;;;;;;;;;21.30;45.60;;;;;;5075888;28;19978;-42
2022/04/02 00:27:21;;;;;;;;;;;21.30;45.60;;;;;;5075928;28;20011;-42
2022/04/02 00:29:49;;;;;;;;;;;21.30;45.60;;;;;;5076653;28;20445;-43
2022/04/02 00:32:16;;;;;;;;;;;21.30;45.60;;;;;;5075560;28;19974;-42
2022/04/02 00:34:42;;;;;;;;;;;21.30;46.20;;;;;;5075743;28;20360;-45
2022/04/02 00:37:09;;;;;;;;;;;21.30;45.60;;;;;;5075164;28;19924;-45
2022/04/02 00:39:36;;;;;;;;;;;21.30;45.60;;;;;;5075943;28;19928;-47
2022/04/02 00:42:03;;;;;;;;;;;21.30;45.60;;;;;;5075887;28;20360;-42
2022/04/02 00:44:30;;;;;;;;;;;21.30;45.60;;;;;;5075225;28;19925;-41
2022/04/02 00:46:57;;;;;;;;;;;21.30;45.50;;;;;;5075848;28;19924;-44
2022/04/02 00:49:24;;;;;;;;;;;21.30;45.50;;;;;;5074284;28;19924;-43
2022/04/02 00:51:53;;;;;;;;;;;21.30;45.50;;;;;;5074257;28;20016;-42
2022/04/02 00:54:20;;;;;;;;;;;21.30;45.50;;;;;;5075389;28;19924;-41
2022/04/02 00:56:47;;;;;;;;;;;21.30;45.50;;;;;;5075074;28;19928;-42
2022/04/02 00:59:15;;;;;;;;;;;21.30;45.50;;;;;;5075300;28;19924;-44
2022/04/02 01:01:43;;;;;;;;;;;21.30;45.50;;;;;;5075147;28;19964;-41
2022/04/02 01:04:10;;;;;;;;;;;21.30;45.50;;;;;;5074541;28;19924;-46
2022/04/02 01:06:39;;;;;;;;;;;21.30;45.50;;;;;;5074561;28;19924;-47
2022/04/02 01:09:06;;;;;;;;;;;21.30;45.50;;;;;;5075925;28;19928;-42
2022/04/02 01:11:35;;;;;;;;;;;21.30;45.50;;;;;;5074683;28;19954;-41
2022/04/02 01:14:03;;;;;;;;;;;21.30;45.40;;;;;;5075784;28;19924;-45
2022/04/02 01:16:31;;;;;;;;;;;21.30;45.40;;;;;;5074912;28;19939;-42
2022/04/02 01:18:58;;;;;;;;;;;21.30;45.40;;;;;;5075187;28;19928;-42
2022/04/02 01:21:26;;;;;;;;;;;21.30;45.50;;;;;;5092574;28;19985;-43
2022/04/02 01:23:54;;;;;;;;;;;21.30;45.40;;;;;;5094048;28;19924;-42
2022/04/02 01:26:22;;;;;;;;;;;21.30;45.50;;;;;;5094963;28;19970;-42
2022/04/02 01:28:55;;;;;;;;;;;21.30;45.40;;;;;;5095167;28;19928;-43
2022/04/02 01:31:22;;;;;;;;;;;21.30;45.40;;;;;;5094654;28;19931;-42
2022/04/02 01:33:49;;;;;;;;;;;21.30;45.40;;;;;;5095125;28;19924;-42
2022/04/02 01:36:17;;;;;;;;;;;21.30;45.40;;;;;;5094773;28;19928;-42
2022/04/02 01:38:45;;;;;;;;;;;21.30;45.40;;;;;;5093573;28;20315;-43
2022/04/02 01:41:12;;;;;;;;;;;21.30;45.40;;;;;;5094638;28;19924;-42
2022/04/02 01:43:41;;;;;;;;;;;21.30;45.40;;;;;;5094942;28;19947;-42
2022/04/02 01:46:08;;;;;;;;;;;21.30;45.40;;;;;;5094598;28;19936;-42
2022/04/02 01:48:35;;;;;;;;;;;21.30;45.40;;;;;;5076657;28;19924;-41
2022/04/02 01:51:02;;;;;;;;;;;21.30;45.40;;;;;;5094392;28;19924;-42
2022/04/02 01:53:29;;;;;;;;;;;21.30;45.40;;;;;;5093496;28;19978;-42
2022/04/02 01:55:56;;;;;;;;;;;21.30;45.40;;;;;;5094416;28;19924;-43
2022/04/02 01:58:24;;;;;;;;;;;21.30;45.40;;;;;;5094725;28;19932;-42
2022/04/02 02:00:51;;;;;;;;;;;21.30;45.40;;;;;;5076348;28;19993;-44
2022/04/02 02:03:18;;;;;;;;;;;21.30;45.40;;;;;;5094308;28;19930;-46
2022/04/02 02:05:46;;;;;;;;;;;21.30;45.40;;;;;;5076410;28;19930;-42
2022/04/02 02:08:13;;;;;;;;;;;21.30;45.40;;;;;;5093598;28;19930;-42
2022/04/02 02:10:40;;;;;;;;;;;21.30;45.40;;;;;;5094206;28;19924;-44
2022/04/02 02:13:07;;;;;;;;;;;21.30;45.40;;;;;;5094159;28;19986;-44
2022/04/02 02:15:34;;;;;;;;;;;21.30;45.40;;;;;;5093648;28;19924;-41
2022/04/02 02:18:01;;;;;;;;;;;21.30;45.40;;;;;;5093921;28;19928;-42
2022/04/02 02:20:28;;;;;;;;;;;21.30;45.40;;;;;;5093614;28;19931;-45
2022/04/02 02:22:55;;;;;;;;;;;21.30;45.40;;;;;;5093071;28;19976;-44
2022/04/02 02:25:22;;;;;;;;;;;21.30;45.40;;;;;;5075884;28;19924;-44
2022/04/02 02:27:49;;;;;;;;;;;21.30;45.40;;;;;;5093918;28;19924;-43
2022/04/02 02:30:16;;;;;;;;;;;21.30;45.40;;;;;;5094188;28;19924;-44
2022/04/02 02:32:45;;;;;;;;;;;21.30;45.40;;;;;;5093906;28;20342;-41
2022/04/02 02:38:02;;;;;;;;;;;21.30;45.40;;;;;;5093300;28;19924;-43
2022/04/02 02:40:29;;;;;;;;;;;21.30;45.40;;;;;;5093997;28;19928;-41
2022/04/02 02:42:56;;;;;;;;;;;21.30;45.40;;;;;;5093762;28;19928;-44
2022/04/02 02:45:24;;;;;;;;;;;21.30;45.30;;;;;;5093987;28;19928;-43
2022/04/02 02:47:52;;;;;;;;;;;21.30;45.30;;;;;;5093960;28;20366;-42
2022/04/02 02:50:20;;;;;;;;;;;21.30;45.30;;;;;;5093953;28;19950;-42
2022/04/02 02:52:48;;;;;;;;;;;21.30;45.30;;;;;;5092484;28;19924;-42
2022/04/02 02:55:15;;;;;;;;;;;21.30;45.30;;;;;;5093617;28;19924;-42
2022/04/02 02:57:43;;;;;;;;;;;21.30;45.30;;;;;;5093530;28;19924;-43
2022/04/02 03:00:11;;;;;;;;;;;21.30;45.30;;;;;;5093512;28;19931;-43
2022/04/02 03:02:38;;;;;;;;;;;21.30;45.40;;;;;;5093465;28;19974;-41
2022/04/02 03:05:10;;;;;;;;;;;21.20;45.30;;;;;;5075995;28;19924;-42
2022/04/02 03:07:49;;;;;;;;;;;21.30;45.40;;;;;;5093261;28;19955;-43
2022/04/02 03:10:19;;;;;;;;;;;21.30;45.30;;;;;;5093615;28;19924;-43
2022/04/02 03:12:47;;;;;;;;;;;21.30;45.40;;;;;;5075513;28;19970;-41
2022/04/02 03:15:15;;;;;;;;;;;21.20;45.30;;;;;;5093419;28;20387;-45
2022/04/02 03:17:45;;;;;;;;;;;21.20;45.20;;;;;;5093388;28;19954;-42
2022/04/02 03:20:13;;;;;;;;;;;21.30;45.30;;;;;;5092911;28;19931;-42
2022/04/02 03:22:40;;;;;;;;;;;21.30;45.30;;;;;;5093267;28;20333;-44
2022/04/02 03:25:11;;;;;;;;;;;21.30;45.30;;;;;;5092365;28;19924;-43
2022/04/02 03:27:39;;;;;;;;;;;21.30;45.30;;;;;;5094304;28;19997;-41
2022/04/02 03:30:08;;;;;;;;;;;21.20;45.20;;;;;;5079323;28;20383;-42
2022/04/02 03:32:36;;;;;;;;;;;21.20;45.20;;;;;;5079319;28;20329;-44
2022/04/02 03:35:03;;;;;;;;;;;21.20;45.20;;;;;;5097474;28;20291;-44
2022/04/02 03:37:31;;;;;;;;;;;21.30;45.30;;;;;;5097140;28;19924;-43
2022/04/02 03:39:58;;;;;;;;;;;21.30;45.30;;;;;;5096080;28;19931;-43
2022/04/02 03:42:25;;;;;;;;;;;21.30;45.30;;;;;;5096980;28;19928;-42
2022/04/02 03:44:52;;;;;;;;;;;21.30;45.20;;;;;;5096890;28;19969;-42
2022/04/02 03:47:22;;;;;;;;;;;21.30;45.30;;;;;;5096897;28;19924;-42
2022/04/02 03:49:51;;;;;;;;;;;21.20;45.20;;;;;;5079247;28;19931;-45
2022/04/02 03:52:18;;;;;;;;;;;21.20;45.20;;;;;;5096879;28;20120;-45
2022/04/02 03:54:45;;;;;;;;;;;21.30;45.30;;;;;;5096264;28;19931;-42
2022/04/02 03:57:13;;;;;;;;;;;21.20;45.20;;;;;;5096489;28;19973;-43
2022/04/02 03:59:41;;;;;;;;;;;21.20;45.80;;;;;;5096707;28;19924;-42
2022/04/02 04:02:08;;;;;;;;;;;21.20;45.20;;;;;;5078667;28;20014;-44
2022/04/02 04:04:37;;;;;;;;;;;21.30;45.20;;;;;;5096628;28;20272;-41
2022/04/02 04:07:04;;;;;;;;;;;21.30;45.20;;;;;;5078915;28;20342;-42
2022/04/02 04:09:31;;;;;;;;;;;21.30;45.20;;;;;;5095996;28;19924;-45
2022/04/02 04:11:58;;;;;;;;;;;21.30;45.20;;;;;;5096310;28;20429;-42
2022/04/02 04:14:26;;;;;;;;;;;21.30;45.20;;;;;;5096404;28;20067;-43
2022/04/02 04:16:53;;;;;;;;;;;21.20;45.20;;;;;;5096389;28;19924;-46
2022/04/02 04:19:21;;;;;;;;;;;21.20;45.20;;;;;;5096115;28;19924;-45
2022/04/02 04:21:48;;;;;;;;;;;21.20;45.20;;;;;;5095989;28;19924;-44
2022/04/02 04:24:15;;;;;;;;;;;21.20;45.20;;;;;;5095356;28;19977;-42
2022/04/02 04:26:43;;;;;;;;;;;21.20;45.20;;;;;;5096547;28;20299;-44
2022/04/02 04:29:11;;;;;;;;;;;21.20;45.20;;;;;;5096155;28;19928;-42
2022/04/02 04:31:38;;;;;;;;;;;21.20;45.20;;;;;;5096404;28;20011;-42
2022/04/02 04:34:06;;;;;;;;;;;21.20;45.20;;;;;;5096091;28;20010;-42
2022/04/02 04:36:34;;;;;;;;;;;21.20;45.40;;;;;;5095998;28;20388;-43
2022/04/02 04:39:01;;;;;;;;;;;21.20;45.20;;;;;;5094090;28;20009;-42
2022/04/02 04:41:32;;;;;;;;;;;21.20;45.20;;;;;;5078521;28;19973;-42
2022/04/02 04:43:59;;;;;;;;;;;21.20;45.20;;;;;;5095546;28;19928;-44
2022/04/02 04:46:26;;;;;;;;;;;21.20;45.20;;;;;;5096138;28;19928;-45
2022/04/02 04:48:53;;;;;;;;;;;21.20;45.20;;;;;;5077868;28;20418;-41
2022/04/02 04:51:23;;;;;;;;;;;21.20;45.10;;;;;;5095828;28;19928;-44
2022/04/02 04:53:51;;;;;;;;;;;21.20;45.20;;;;;;5078454;28;19924;-43
2022/04/02 04:56:18;;;;;;;;;;;21.20;45.20;;;;;;5077205;28;19931;-45
2022/04/02 04:58:45;;;;;;;;;;;21.20;45.20;;;;;;5095584;28;19923;-41
2022/04/02 05:01:15;;;;;;;;;;;21.20;45.20;;;;;;5095441;28;19985;-44
2022/04/02 05:03:42;;;;;;;;;;;21.20;45.20;;;;;;5095399;28;20356;-43
2022/04/02 05:06:10;;;;;;;;;;;21.20;45.20;;;;;;5095425;28;19928;-45
2022/04/02 05:08:37;;;;;;;;;;;21.20;45.20;;;;;;5095626;28;19959;-44
2022/04/02 05:11:04;;;;;;;;;;;21.20;45.20;;;;;;5094435;28;20402;-42
2022/04/02 05:13:31;;;;;;;;;;;21.20;45.10;;;;;;5095600;28;19928;-42
2022/04/02 05:15:58;;;;;;;;;;;21.20;45.20;;;;;;5095261;28;19928;-48
2022/04/02 05:18:25;;;;;;;;;;;21.20;45.20;;;;;;5077560;28;19970;-43
2022/04/02 05:20:52;;;;;;;;;;;21.20;45.20;;;;;;5076974;28;19928;-45
2022/04/02 05:23:20;;;;;;;;;;;21.20;45.10;;;;;;5094866;28;20314;-43
2022/04/02 05:25:47;;;;;;;;;;;21.20;45.10;;;;;;5093939;28;19943;-45
2022/04/02 05:28:14;;;;;;;;;;;21.20;45.10;;;;;;5095223;28;19924;-43
2022/04/02 05:30:42;;;;;;;;;;;21.20;45.10;;;;;;5094928;28;19924;-42
2022/04/02 05:33:09;;;;;;;;;;;21.20;45.10;;;;;;5094885;28;19928;-46
2022/04/02 05:35:57;;;;;;;;;;;21.20;45.10;;;;;;5094917;28;19924;-45
2022/04/02 05:38:24;;;;;;;;;;;21.20;45.10;;;;;;5095127;28;20292;-45
2022/04/02 05:40:51;;;;;;;;;;;21.20;45.10;;;;;;5093891;28;19928;-41
2022/04/02 05:43:18;;;;;;;;;;;21.20;45.10;;;;;;5076515;28;19970;-41
2022/04/02 05:45:46;;;;;;;;;;;21.20;45.10;;;;;;5095040;28;19928;-44
2022/04/02 05:48:14;;;;;;;;;;;21.20;45.10;;;;;;5094928;28;19929;-43
2022/04/02 05:50:41;;;;;;;;;;;21.20;45.10;;;;;;5093937;28;20001;-43
2022/04/02 05:53:08;;;;;;;;;;;21.30;45.20;;;;;;5094484;28;19977;-44
2022/04/02 05:55:36;;;;;;;;;;;21.20;45.00;;;;;;5093912;28;20294;-42
2022/04/02 05:58:04;;;;;;;;;;;21.20;45.00;;;;;;5094469;28;19977;-41
2022/04/02 06:00:31;;;;;;;;;;;21.20;45.00;;;;;;5094398;28;19928;-42
2022/04/02 06:03:05;;;;;;;;;;;21.20;45.00;;;;;;5094640;28;19924;-41
2022/04/02 06:05:33;;;;;;;;;;;21.20;45.00;;;;;;5094234;28;19950;-43
2022/04/02 06:08:00;;;;;;;;;;;21.20;45.00;;;;;;5093989;28;19931;-42
2022/04/02 06:10:27;;;;;;;;;;;21.30;45.10;;;;;;5093420;28;19926;-42
2022/04/02 06:12:54;;;;;;;;;;;21.30;45.10;;;;;;5094168;28;19973;-43
2022/04/02 06:15:24;;;;;;;;;;;21.20;45.00;;;;;;5094179;28;19963;-42
2022/04/02 06:17:51;;;;;;;;;;;21.20;45.00;;;;;;5094083;28;20453;-46
2022/04/02 06:20:19;;;;;;;;;;;21.20;45.00;;;;;;5072550;28;19924;-45
2022/04/02 06:22:46;;;;;;;;;;;21.20;45.00;;;;;;5073469;28;19932;-44
2022/04/02 06:25:13;;;;;;;;;;;21.20;45.00;;;;;;5072727;28;19928;-44
2022/04/02 06:27:44;;;;;;;;;;;21.20;45.00;;;;;;5072858;28;20015;-43
2022/04/02 06:30:15;;;;;;;;;;;21.20;45.00;;;;;;5073660;28;19947;-42
2022/04/02 06:32:42;;;;;;;;;;;21.20;45.00;;;;;;5073516;28;19982;-42
2022/04/02 06:35:09;;;;;;;;;;;21.30;45.00;;;;;;5073853;28;19935;-46
2022/04/02 06:37:38;;;;;;;;;;;21.30;45.00;;;;;;5073564;28;19931;-42
2022/04/02 06:40:06;;;;;;;;;;;21.30;45.00;;;;;;5073206;28;19925;-42
2022/04/02 06:42:33;;;;;;;;;;;21.30;45.00;;;;;;5073718;28;19925;-46
2022/04/02 06:45:00;;;;;;;;;;;21.30;45.00;;;;;;5073532;28;19936;-45
2022/04/02 06:47:28;;;;;;;;;;;21.30;45.00;;;;;;5073712;28;19993;-44
2022/04/02 06:49:55;;;;;;;;;;;21.30;44.90;;;;;;5073458;28;19924;-42
2022/04/02 06:52:23;;;;;;;;;;;21.30;44.90;;;;;;5071787;28;20395;-41
2022/04/02 06:54:50;;;;;;;;;;;21.30;44.90;;;;;;5073646;28;20342;-42
2022/04/02 06:57:21;;;;;;;;;;;21.30;44.90;;;;;;5072716;28;19925;-47
2022/04/02 06:59:48;;;;;;;;;;;21.30;44.90;;;;;;5073434;28;19924;-46
2022/04/02 07:02:21;;;;;;;;;;;21.30;44.80;;;;;;5073948;28;19974;-44
2022/04/02 07:04:48;;;;;;;;;;;21.30;44.80;;;;;;5077459;28;20038;-44
2022/04/02 07:07:15;;;;;;;;;;;21.30;44.80;;;;;;5077410;28;19924;-43
2022/04/02 07:09:42;;;;;;;;;;;21.30;44.80;;;;;;5077173;28;19960;-45
2022/04/02 07:12:09;;;;;;;;;;;21.30;44.70;;;;;;5076456;28;20016;-44
2022/04/02 07:14:37;;;;;;;;;;;21.30;44.70;;;;;;5077556;28;19969;-43
2022/04/02 07:17:04;;;;;;;;;;;21.30;44.70;;;;;;5077253;28;19959;-43
2022/04/02 07:19:32;;;;;;;;;;;21.30;44.70;;;;;;5079214;28;19925;-42
2022/04/02 07:22:00;;;;;;;;;;;21.40;44.80;;;;;;5097318;28;20333;-42
2022/04/02 07:24:27;;;;;;;;;;;21.40;44.80;;;;;;5097608;28;19924;-43
2022/04/02 07:26:54;;;;;;;;;;;21.40;44.80;;;;;;5096684;28;19924;-42
2022/04/02 07:29:24;;;;;;;;;;;21.40;44.70;;;;;;5079173;28;19924;-43
2022/04/02 07:31:51;;;;;;;;;;;21.40;44.70;;;;;;5097553;28;19947;-42
2022/04/02 07:34:21;;;;;;;;;;;21.40;44.60;;;;;;5097492;28;19976;-44
2022/04/02 07:36:47;;;;;;;;;;;21.40;44.70;;;;;;5097463;28;19969;-41
2022/04/02 07:39:21;;;;;;;;;;;21.40;44.60;;;;;;5097949;28;19974;-42
2022/04/02 07:41:54;;;;;;;;;;;21.40;44.60;;;;;;5095975;28;20445;-42
2022/04/02 07:44:40;;;;;;;;;;;21.40;44.60;;;;;;5096917;28;19924;-45
2022/04/02 07:47:07;;;;;;;;;;;21.40;44.60;;;;;;5097792;28;19928;-46
2022/04/02 07:49:37;;;;;;;;;;;21.40;44.50;;;;;;5096907;28;19954;-41
2022/04/02 07:52:05;;;;;;;;;;;21.40;44.50;;;;;;5096273;28;19924;-41
2022/04/02 07:54:33;;;;;;;;;;;21.50;44.60;;;;;;5079131;28;20329;-43
2022/04/02 07:57:02;;;;;;;;;;;21.50;44.60;;;;;;5096086;28;19928;-42
2022/04/02 07:59:36;;;;;;;;;;;21.50;44.60;;;;;;5097035;28;20368;-41
2022/04/02 08:02:04;;;;;;;;;;;21.50;44.50;;;;;;5096663;28;19924;-42
2022/04/02 08:04:31;;;;;;;;;;;21.50;44.50;;;;;;5096571;28;19951;-46
2022/04/02 08:06:58;;;;;;;;;;;21.50;44.50;;;;;;5078614;28;20003;-43
2022/04/02 08:09:25;;;;;;;;;;;21.50;44.50;;;;;;5096530;28;20332;-41
2022/04/02 08:11:52;;;;;;;;;;;21.50;44.50;;;;;;5095563;28;19969;-42
2022/04/02 08:14:21;;;;;;;;;;;21.50;44.40;;;;;;5096442;28;19931;-42
2022/04/02 08:16:49;;;;;;;;;;;21.50;44.40;;;;;;5078446;28;20380;-44
2022/04/02 08:19:19;;;;;;;;;;;21.50;44.30;;;;;;5078625;28;19978;-47
2022/04/02 08:21:46;;;;;;;;;;;21.60;44.40;;;;;;5095982;28;19924;-42
2022/04/02 08:24:13;;;;;;;;;;;21.60;44.40;;;;;;5096056;28;20367;-43
2022/04/02 08:26:56;;;;;;;;;;;21.50;44.30;;;;;;5095122;28;19974;-46
2022/04/02 08:29:38;;;;;;;;;;;21.60;44.30;;;;;;5096531;28;19932;-43
2022/04/02 08:32:16;;;;;;;;;;;21.60;44.30;;;;;;5078205;28;20444;-43
2022/04/02 08:34:58;;;;;;;;;;;21.60;44.30;;;;;;5095918;28;19953;-45
2022/04/02 08:37:25;;;;;;;;;;;21.60;44.30;;;;;;5095703;28;19924;-42
2022/04/02 08:40:11;;;;;;;;;;;21.60;44.20;;;;;;5096303;28;19928;-42
2022/04/02 08:42:57;;;;;;;;;;;21.60;44.30;;;;;;5095008;28;19969;-45
2022/04/02 08:45:32;;;;;;;;;;;21.60;44.30;;;;;;5095891;28;19974;-46
2022/04/02 08:48:08;;;;;;;;;;;21.60;44.20;;;;;;5096138;28;19925;-44
2022/04/02 08:50:36;;;;;;;;;;;21.70;44.20;;;;;;5095851;28;19924;-45
2022/04/02 08:53:23;;;;;;;;;;;21.60;44.10;;;;;;5095313;28;20375;-41
2022/04/02 08:55:57;;;;;;;;;;;21.60;44.10;;;;;;5085119;28;19931;-44
2022/04/02 08:58:30;;;;;;;;;;;21.70;44.20;;;;;;5094787;28;19977;-44
2022/04/02 09:01:08;;;;;;;;;;;21.70;44.20;;;;;;5077649;28;19974;-43
2022/04/02 09:03:38;;;;;;;;;;;21.70;44.20;;;;;;5095114;28;19927;-44
2022/04/02 09:06:20;;;;;;;;;;;21.70;44.10;;;;;;5095415;28;19924;-42
2022/04/02 09:09:08;;;;;;;;;;;21.70;44.10;;;;;;5095605;28;19993;-42
2022/04/02 09:11:54;;;;;;;;;;;21.70;44.10;;;;;;5095108;28;20102;-42
2022/04/02 09:14:26;;;;;;;;;;;21.70;44.10;;;;;;5075022;28;20383;-45
2022/04/02 09:17:00;;;;;;;;;;;21.70;44.10;;;;;;5074704;28;20384;-46
2022/04/02 09:19:36;;;;;;;;;;;21.80;44.10;;;;;;5074763;28;19924;-42
2022/04/02 09:22:10;;;;;;;;;;;21.80;44.10;;;;;;5074842;28;19924;-41
2022/04/02 09:24:37;;;;;;;;;;;21.80;44.10;;;;;;5057282;28;20018;-45
2022/04/02 09:27:04;;;;;;;;;;;21.80;44.10;;;;;;5076390;28;19936;-45
2022/04/02 09:29:42;;;;;;;;;;;21.80;44.00;;;;;;5095292;28;19924;-42
2022/04/02 09:32:29;;;;;;;;;;;21.80;44.00;;;;;;5095000;28;20081;-43
2022/04/02 09:35:15;;;;;;;;;;;21.80;43.90;;;;;;5084405;28;19928;-42
2022/04/02 09:37:55;;;;;;;;;;;21.80;43.90;;;;;;5094516;28;19924;-45
2022/04/02 09:40:29;;;;;;;;;;;21.90;44.00;;;;;;5094818;28;19971;-46
2022/04/02 09:43:00;;;;;;;;;;;21.90;43.90;;;;;;5093907;28;20387;-44
2022/04/02 09:45:29;;;;;;;;;;;21.90;43.90;;;;;;5095067;28;19924;-44
2022/04/02 09:48:15;;;;;;;;;;;22.00;43.90;;;;;;5094887;28;19960;-42
2022/04/02 09:50:42;;;;;;;;;;;22.00;43.90;;;;;;5094629;28;19924;-42
2022/04/02 09:53:14;;;;;;;;;;;22.00;43.90;;;;;;5094465;28;19924;-42
2022/04/02 09:56:01;;;;;;;;;;;22.00;43.80;;;;;;5094826;28;20291;-42
2022/04/02 09:58:47;;;;;;;;;;;22.00;43.80;;;;;;5093937;28;19950;-43
2022/04/02 10:01:33;;;;;;;;;;;22.00;43.80;;;;;;5094122;28;19938;-41
2022/04/02 10:04:05;;;;;;;;;;;22.00;43.70;;;;;;5076588;28;20030;-42
2022/04/02 10:06:38;;;;;;;;;;;22.10;43.80;;;;;;5094590;28;19924;-41
2022/04/02 10:09:20;;;;;;;;;;;22.10;43.70;;;;;;5094184;28;19924;-43
2022/04/02 10:11:47;;;;;;;;;;;22.10;43.70;;;;;;5094241;28;20395;-43
2022/04/02 10:14:18;;;;;;;;;;;22.10;43.70;;;;;;5093378;28;19928;-44
2022/04/02 10:16:48;;;;;;;;;;;22.10;43.70;;;;;;5094181;28;19924;-45
2022/04/02 10:19:17;;;;;;;;;;;22.10;43.70;;;;;;5094124;28;19924;-43
2022/04/02 10:21:47;;;;;;;;;;;22.10;43.70;;;;;;5093765;28;19924;-43
2022/04/02 10:24:22;;;;;;;;;;;22.10;43.60;;;;;;5094026;28;19924;-43
2022/04/02 10:26:54;;;;;;;;;;;22.20;43.70;;;;;;5094281;28;19930;-43
2022/04/02 10:29:30;;;;;;;;;;;22.20;43.60;;;;;;5093368;28;19951;-45
2022/04/02 10:32:04;;;;;;;;;;;22.20;43.60;;;;;;5093926;28;20372;-42
2022/04/02 10:34:40;;;;;;;;;;;22.20;43.60;;;;;;5093928;28;19978;-46
2022/04/02 10:37:17;;;;;;;;;;;22.20;43.50;;;;;;5092892;28;19924;-45
2022/04/02 10:39:56;;;;;;;;;;;22.20;43.60;;;;;;5094137;28;20357;-46
2022/04/02 10:42:38;;;;;;;;;;;22.20;43.50;;;;;;5094100;28;19933;-44
2022/04/02 10:45:11;;;;;;;;;;;22.20;43.50;;;;;;5093963;28;19928;-43
2022/04/02 10:47:45;;;;;;;;;;;22.20;43.40;;;;;;5093521;28;19977;-43
2022/04/02 10:50:14;;;;;;;;;;;22.20;43.40;;;;;;5093734;28;19924;-42
2022/04/02 10:52:47;;;;;;;;;;;22.30;43.50;;;;;;5093476;28;20462;-42
2022/04/02 10:55:21;;;;;;;;;;;22.30;43.40;;;;;;5093625;28;19924;-42
2022/04/02 10:57:48;;;;;;;;;;;22.30;43.40;;;;;;5093168;28;20337;-43
2022/04/02 11:00:16;;;;;;;;;;;22.40;43.40;;;;;;5093525;28;19924;-43
2022/04/02 11:02:46;;;;;;;;;;;22.40;43.40;;;;;;5093803;28;19923;-43
2022/04/02 11:05:14;;;;;;;;;;;22.40;43.40;;;;;;5093896;28;19924;-44
2022/04/02 11:07:44;;;;;;;;;;;22.40;43.30;;;;;;5093544;28;19946;-44
2022/04/02 11:10:20;;;;;;;;;;;22.50;43.30;;;;;;5093486;28;19924;-47
2022/04/02 11:12:48;;;;;;;;;;;22.50;43.30;;;;;;5093545;28;19924;-42
2022/04/02 11:15:20;;;;;;;;;;;22.40;43.20;;;;;;5092913;28;19928;-45
2022/04/02 11:17:52;;;;;;;;;;;22.50;43.20;;;;;;5075401;28;20368;-44
2022/04/02 11:20:20;;;;;;;;;;;22.50;43.20;;;;;;5093447;28;19974;-41
2022/04/02 11:22:48;;;;;;;;;;;22.50;43.10;;;;;;5093421;28;19928;-44
2022/04/02 11:25:25;;;;;;;;;;;22.60;43.20;;;;;;5093305;28;19924;-45
2022/04/02 11:27:56;;;;;;;;;;;22.60;43.10;;;;;;5093731;28;20369;-47
2022/04/02 11:30:26;;;;;;;;;;;22.60;43.10;;;;;;5092612;28;20345;-43
2022/04/02 11:33:01;;;;;;;;;;;22.60;43.10;;;;;;5093337;28;19978;-44
2022/04/02 11:35:29;;;;;;;;;;;22.70;43.10;;;;;;5075524;28;19924;-48
2022/04/02 11:37:57;;;;;;;;;;;22.70;43.10;;;;;;5093248;28;20422;-45
2022/04/02 11:40:28;;;;;;;;;;;22.70;43.00;;;;;;5092991;28;19925;-42
2022/04/02 11:42:59;;;;;;;;;;;22.70;43.00;;;;;;5093466;28;20337;-45
2022/04/02 11:45:26;;;;;;;;;;;22.70;42.90;;;;;;5092439;28;19924;-43
2022/04/02 11:47:58;;;;;;;;;;;22.80;43.00;;;;;;5092913;28;19924;-45
2022/04/02 11:50:30;;;;;;;;;;;22.80;42.90;;;;;;5097094;28;19924;-44
2022/04/02 11:53:00;;;;;;;;;;;22.80;42.90;;;;;;5096769;28;19931;-42
2022/04/02 11:55:28;;;;;;;;;;;22.80;42.80;;;;;;5096670;28;19924;-42
2022/04/02 11:58:04;;;;;;;;;;;22.80;42.80;;;;;;5096845;28;19931;-43
2022/04/02 12:00:33;;;;;;;;;;;22.90;42.80;;;;;;5095542;28;19981;-43
2022/04/02 12:03:00;;;;;;;;;;;22.90;42.70;;;;;;5097011;28;19931;-43
2022/04/02 12:05:41;;;;;;;;;;;23.00;42.80;;;;;;5096729;28;20011;-43
2022/04/02 12:08:10;;;;;;;;;;;22.90;42.60;;;;;;5096791;28;19924;-41
2022/04/02 12:10:45;;;;;;;;;;;23.00;42.70;;;;;;5096629;28;20027;-44
2022/04/02 12:13:13;;;;;;;;;;;23.00;42.60;;;;;;5096848;28;19932;-42
2022/04/02 12:15:48;;;;;;;;;;;23.00;42.60;;;;;;5095513;28;19962;-41
2022/04/02 12:18:17;;;;;;;;;;;23.00;42.60;;;;;;5096799;28;20337;-42
2022/04/02 12:20:44;;;;;;;;;;;23.00;42.60;;;;;;5096465;28;19958;-44
2022/04/02 12:23:15;;;;;;;;;;;23.00;43.20;;;;;;5095973;28;20024;-43
2022/04/02 12:25:45;;;;;;;;;;;23.10;43.30;;;;;;5078851;28;20296;-42
2022/04/02 12:28:15;;;;;;;;;;;23.10;42.60;;;;;;5096240;28;19931;-45
2022/04/02 12:30:46;;;;;;;;;;;23.10;42.60;;;;;;5095409;28;20295;-43
2022/04/02 12:33:15;;;;;;;;;;;23.10;42.60;;;;;;5096489;28;19924;-42
2022/04/02 12:35:54;;;;;;;;;;;23.10;42.60;;;;;;5096141;28;19959;-42
2022/04/02 12:38:25;;;;;;;;;;;23.10;42.60;;;;;;5095973;28;19935;-41
2022/04/02 12:40:56;;;;;;;;;;;23.10;42.60;;;;;;5095957;28;19924;-41
2022/04/02 12:43:27;;;;;;;;;;;23.10;42.50;;;;;;5095873;28;20379;-43
2022/04/02 12:45:55;;;;;;;;;;;23.20;42.60;;;;;;5094937;28;19924;-42
2022/04/02 12:48:24;;;;;;;;;;;23.20;42.60;;;;;;5096055;28;19982;-42
2022/04/02 12:51:01;;;;;;;;;;;23.20;42.50;;;;;;5095864;28;19929;-42
2022/04/02 12:53:33;;;;;;;;;;;23.20;42.40;;;;;;5095792;28;19924;-44
2022/04/02 12:56:01;;;;;;;;;;;23.20;42.40;;;;;;5095715;28;19977;-43
2022/04/02 12:58:38;;;;;;;;;;;23.30;42.50;;;;;;5095682;28;19924;-43
2022/04/02 13:01:21;;;;;;;;;;;23.30;42.40;;;;;;5093949;28;19950;-42
2022/04/02 13:03:59;;;;;;;;;;;23.30;42.40;;;;;;5095813;28;19931;-43
2022/04/02 13:06:30;;;;;;;;;;;23.30;42.40;;;;;;5095854;28;19932;-41
2022/04/02 13:08:59;;;;;;;;;;;23.30;42.40;;;;;;5095420;28;19970;-45
2022/04/02 13:11:45;;;;;;;;;;;23.30;42.50;;;;;;5095421;28;19931;-45
2022/04/02 13:14:13;;;;;;;;;;;23.30;42.50;;;;;;5094607;28;20484;-44
2022/04/02 13:16:44;;;;;;;;;;;23.30;42.50;;;;;;5075986;28;19925;-41
2022/04/02 13:22:14;;;;;;;;;;;23.30;43.20;;;;;;5074873;28;19924;-42
2022/04/02 13:24:41;;;;;;;;;;;23.20;43.10;;;;;;5075054;28;19970;-44
2022/04/02 13:27:08;;;;;;;;;;;23.20;42.60;;;;;;5074860;28;19924;-45
2022/04/02 13:29:38;;;;;;;;;;;23.20;42.70;;;;;;5076550;28;19978;-44
2022/04/02 13:32:31;;;;;;;;;;;23.10;43.30;;;;;;5095283;28;19924;-42
2022/04/02 13:35:05;;;;;;;;;;;23.10;42.70;;;;;;5095304;28;20018;-44
2022/04/02 13:37:51;;;;;;;;;;;23.10;42.80;;;;;;5094969;28;19977;-46
2022/04/02 13:40:19;;;;;;;;;;;23.10;42.80;;;;;;5094969;28;19977;-43
2022/04/02 13:42:57;;;;;;;;;;;23.10;42.90;;;;;;5095147;28;19967;-41
2022/04/02 13:45:25;;;;;;;;;;;23.10;43.00;;;;;;5086931;28;19925;-42
2022/04/02 13:47:57;;;;;;;;;;;23.10;43.00;;;;;;5074419;28;19954;-42
2022/04/02 13:50:27;;;;;;;;;;;23.10;43.00;;;;;;5074229;28;19963;-46
2022/04/02 13:53:04;;;;;;;;;;;23.10;43.00;;;;;;5074090;28;19928;-41
2022/04/02 13:55:32;;;;;;;;;;;23.10;43.00;;;;;;5074388;28;19928;-47
2022/04/02 13:58:06;;;;;;;;;;;23.00;42.90;;;;;;5056900;28;19958;-42
2022/04/02 14:00:43;;;;;;;;;;;23.00;43.10;;;;;;5074292;28;19925;-46
2022/04/02 14:03:11;;;;;;;;;;;23.00;43.10;;;;;;5074058;28;19982;-43
2022/04/02 14:05:38;;;;;;;;;;;23.00;43.20;;;;;;5074390;28;19987;-41
2022/04/02 14:08:10;;;;;;;;;;;23.00;43.20;;;;;;5056310;28;19928;-43
2022/04/02 14:10:38;;;;;;;;;;;23.00;43.20;;;;;;5074030;28;19933;-41
2022/04/02 14:13:10;;;;;;;;;;;23.00;43.30;;;;;;5073983;28;19978;-41
2022/04/02 14:15:39;;;;;;;;;;;22.90;43.30;;;;;;5079738;28;20387;-41
2022/04/02 14:18:08;;;;;;;;;;;22.90;43.30;;;;;;5094488;28;19943;-46
2022/04/02 14:20:35;;;;;;;;;;;22.90;43.30;;;;;;5093801;28;19931;-41
2022/04/02 14:23:18;;;;;;;;;;;22.90;43.30;;;;;;5094335;28;20337;-45
2022/04/02 14:26:04;;;;;;;;;;;22.90;43.40;;;;;;5093885;28;20394;-41
2022/04/02 14:28:37;;;;;;;;;;;22.80;43.40;;;;;;5094337;28;20357;-42
2022/04/02 14:31:23;;;;;;;;;;;22.80;43.40;;;;;;5093400;28;20280;-47
2022/04/02 14:34:01;;;;;;;;;;;22.80;43.40;;;;;;5093846;28;19927;-41
2022/04/02 14:36:34;;;;;;;;;;;22.80;43.40;;;;;;5094256;28;20342;-45
2022/04/02 14:39:20;;;;;;;;;;;22.80;43.40;;;;;;5094149;28;19977;-41